Time;durP1;ratioP1;P1;durP2;ratioP2;P2;SDS_P1;SDS_P2;PMS_P1;PMS_P2;Temp;Humidity;BMP_temperature;BMP_pressure;BME280_temperature;BME280_humidity;BME280_pressure;Samples;Min_cycle;Max_cycle;Signal;HPM_P1;HPM_P2
2021/01/13 00:00:34;;;;;;;12.93;5.30;;;;;;;;;;5009648;28;20022;-84
2021/01/13 00:02:59;;;;;;;17.43;5.37;;;;;;;;;;5009425;28;20470;-84
2021/01/13 00:05:24;;;;;;;15.87;5.30;;;;;;;;;;4994009;28;20038;-84
2021/01/13 00:07:50;;;;;;;15.37;5.27;;;;;;;;;;5009140;28;20165;-83
2021/01/13 00:10:16;;;;;;;18.27;5.20;;;;;;;;;;5009341;28;20041;-84
2021/01/13 00:12:41;;;;;;;19.30;5.00;;;;;;;;;;5009258;28;20033;-83
2021/01/13 00:15:07;;;;;;;18.43;5.97;;;;;;;;;;5009133;28;20026;-84
2021/01/13 00:17:33;;;;;;;23.33;4.70;;;;;;;;;;5009408;28;20029;-84
2021/01/13 00:19:58;;;;;;;12.33;5.17;;;;;;;;;;5009109;28;20474;-83
2021/01/13 00:22:24;;;;;;;19.27;5.00;;;;;;;;;;5008956;28;20041;-84
2021/01/13 00:24:49;;;;;;;19.13;4.93;;;;;;;;;;4994105;28;20038;-84
2021/01/13 00:27:15;;;;;;;17.47;5.57;;;;;;;;;;5006348;28;20022;-84
2021/01/13 00:29:40;;;;;;;14.93;4.77;;;;;;;;;;4989576;28;20023;-84
2021/01/13 00:32:05;;;;;;;24.60;5.93;;;;;;;;;;4993887;28;20034;-83
2021/01/13 00:34:30;;;;;;;16.10;5.07;;;;;;;;;;5009148;28;20026;-84
2021/01/13 00:36:55;;;;;;;16.73;5.30;;;;;;;;;;5008950;28;20030;-84
2021/01/13 00:39:21;;;;;;;18.87;5.17;;;;;;;;;;5008987;28;20108;-83
2021/01/13 00:41:46;;;;;;;15.37;5.37;;;;;;;;;;5008730;28;20018;-84
2021/01/13 00:44:12;;;;;;;16.43;6.07;;;;;;;;;;5008866;28;20045;-84
2021/01/13 00:46:38;;;;;;;13.20;5.27;;;;;;;;;;5008885;28;20148;-84
2021/01/13 00:49:04;;;;;;;18.50;5.90;;;;;;;;;;5008801;28;20112;-84
2021/01/13 00:51:36;;;;;;;13.03;5.20;;;;;;;;;;5008554;28;20033;-84
2021/01/13 00:54:01;;;;;;;13.85;5.80;;;;;;;;;;5008864;28;20369;-84
2021/01/13 00:56:27;;;;;;;14.03;5.17;;;;;;;;;;5008820;28;20026;-84
2021/01/13 00:58:52;;;;;;;12.73;5.47;;;;;;;;;;4993614;28;20108;-84
2021/01/13 01:01:17;;;;;;;16.83;5.77;;;;;;;;;;5008623;28;20041;-84
2021/01/13 01:03:42;;;;;;;18.00;6.33;;;;;;;;;;5008652;28;20438;-83
2021/01/13 01:06:11;;;;;;;13.87;5.70;;;;;;;;;;5008574;28;20022;-84
2021/01/13 01:08:36;;;;;;;14.43;5.63;;;;;;;;;;4993318;28;20022;-84
2021/01/13 01:11:02;;;;;;;20.90;6.27;;;;;;;;;;5008539;28;20081;-84
2021/01/13 01:13:27;;;;;;;24.57;6.23;;;;;;;;;;5008635;28;20133;-84
2021/01/13 01:15:52;;;;;;;17.40;6.57;;;;;;;;;;5020318;28;20022;-84
2021/01/13 01:18:17;;;;;;;17.40;7.53;;;;;;;;;;5010313;28;20101;-84
2021/01/13 01:20:43;;;;;;;24.10;7.27;;;;;;;;;;5008583;28;20040;-84
2021/01/13 01:23:08;;;;;;;25.17;6.70;;;;;;;;;;5007890;28;20095;-83
2021/01/13 01:25:33;;;;;;;24.03;7.13;;;;;;;;;;5008209;28;20068;-84
2021/01/13 01:28:00;;;;;;;16.27;6.63;;;;;;;;;;5008382;28;20018;-84
2021/01/13 01:30:26;;;;;;;21.20;7.67;;;;;;;;;;4995382;28;20014;-84
2021/01/13 01:32:52;;;;;;;25.50;7.47;;;;;;;;;;5009697;28;20030;-84
2021/01/13 01:35:17;;;;;;;23.23;8.10;;;;;;;;;;4991581;28;20033;-84
2021/01/13 01:37:43;;;;;;;21.53;7.20;;;;;;;;;;5007669;28;20379;-84
2021/01/13 01:40:13;;;;;;;20.00;7.47;;;;;;;;;;4991732;28;20104;-84
2021/01/13 01:42:48;;;;;;;21.10;7.70;;;;;;;;;;4991714;28;20029;-84
2021/01/13 01:45:15;;;;;;;23.03;7.97;;;;;;;;;;5006739;28;20029;-84
2021/01/13 01:48:01;;;;;;;15.50;7.30;;;;;;;;;;4991384;28;20018;-84
2021/01/13 01:50:37;;;;;;;17.93;7.03;;;;;;;;;;4991653;28;20048;-83
2021/01/13 01:53:09;;;;;;;18.33;7.60;;;;;;;;;;4991665;28;20081;-84
2021/01/13 01:55:39;;;;;;;20.90;8.15;;;;;;;;;;4991468;28;20026;-84
2021/01/13 01:58:09;;;;;;;20.20;7.00;;;;;;;;;;4991664;28;20470;-84
2021/01/13 02:00:34;;;;;;;17.63;7.83;;;;;;;;;;4991785;28;20019;-84
2021/01/13 02:03:06;;;;;;;21.73;8.30;;;;;;;;;;4992502;28;20022;-84
2021/01/13 02:05:32;;;;;;;23.13;8.50;;;;;;;;;;5007631;28;20065;-84
2021/01/13 02:08:00;;;;;;;27.80;7.40;;;;;;;;;;4991534;28;20626;-84
2021/01/13 02:10:25;;;;;;;21.53;7.93;;;;;;;;;;4991599;28;20081;-84
2021/01/13 02:12:51;;;;;;;18.43;7.87;;;;;;;;;;4991302;28;20027;-84
2021/01/13 02:15:17;;;;;;;19.53;8.23;;;;;;;;;;4992689;28;20068;-84
2021/01/13 02:17:43;;;;;;;24.00;8.00;;;;;;;;;;4991147;28;20105;-84
2021/01/13 02:20:12;;;;;;;18.03;7.47;;;;;;;;;;4991369;28;20014;-84
2021/01/13 02:22:57;;;;;;;21.63;8.37;;;;;;;;;;4990820;28;20029;-84
2021/01/13 02:25:42;;;;;;;21.23;7.63;;;;;;;;;;4991317;28;20054;-84
2021/01/13 02:28:09;;;;;;;20.73;7.57;;;;;;;;;;4990735;28;20030;-84
2021/01/13 02:30:58;;;;;;;18.70;7.37;;;;;;;;;;4994407;28;20024;-84
2021/01/13 02:33:23;;;;;;;17.33;7.03;;;;;;;;;;4995084;28;20392;-84
2021/01/13 02:35:48;;;;;;;22.03;7.87;;;;;;;;;;4994966;28;20022;-84
2021/01/13 02:38:13;;;;;;;17.93;7.37;;;;;;;;;;4994159;28;20451;-84
2021/01/13 02:40:46;;;;;;;16.13;7.37;;;;;;;;;;5003828;28;20014;-83
2021/01/13 02:43:13;;;;;;;16.73;7.35;;;;;;;;;;5012219;28;20050;-84
2021/01/13 02:45:45;;;;;;;25.43;7.30;;;;;;;;;;4994657;28;20045;-84
2021/01/13 02:48:11;;;;;;;;;;;;;;;;;;5011403;28;20452;-84
2021/01/13 02:50:37;;;;;;;18.53;7.53;;;;;;;;;;5011209;28;19941;-84
2021/01/13 02:53:08;;;;;;;25.63;8.10;;;;;;;;;;4994554;28;20026;-84
2021/01/13 02:55:41;;;;;;;22.10;7.90;;;;;;;;;;4994210;28;20040;-84
2021/01/13 02:58:08;;;;;;;19.52;7.47;;;;;;;;;;4995926;28;20027;-84
2021/01/13 03:00:35;;;;;;;27.47;7.70;;;;;;;;;;5010838;28;20026;-84
2021/01/13 03:03:00;;;;;;;20.33;7.63;;;;;;;;;;5000679;28;20450;-84
2021/01/13 03:05:27;;;;;;;17.30;6.83;;;;;;;;;;4994325;28;20062;-84
2021/01/13 03:07:54;;;;;;;32.47;7.77;;;;;;;;;;4994413;28;20474;-84
2021/01/13 03:10:21;;;;;;;23.00;6.90;;;;;;;;;;4994306;28;20033;-84
2021/01/13 03:12:47;;;;;;;19.63;7.33;;;;;;;;;;4994170;28;20026;-84
2021/01/13 03:15:13;;;;;;;24.37;7.60;;;;;;;;;;4994333;28;20084;-84
2021/01/13 03:18:01;;;;;;;20.63;6.43;;;;;;;;;;4994198;28;20110;-84
2021/01/13 03:20:36;;;;;;;16.67;7.27;;;;;;;;;;4994932;28;20027;-84
2021/01/13 03:23:10;;;;;;;18.40;6.77;;;;;;;;;;4995443;28;20350;-84
2021/01/13 03:25:46;;;;;;;14.93;5.93;;;;;;;;;;4995255;28;20045;-84
2021/01/13 03:28:14;;;;;;;15.33;6.47;;;;;;;;;;4994314;28;20026;-84
2021/01/13 03:30:41;;;;;;;17.67;5.80;;;;;;;;;;4993782;28;20371;-84
2021/01/13 03:33:16;;;;;;;21.97;6.10;;;;;;;;;;5000610;28;20128;-84
2021/01/13 03:35:45;;;;;;;17.27;6.40;;;;;;;;;;4995585;28;20030;-83
2021/01/13 03:38:15;;;;;;;19.70;7.20;;;;;;;;;;4993793;28;20049;-84
2021/01/13 03:40:42;;;;;;;12.70;5.20;;;;;;;;;;4992267;28;20524;-84
2021/01/13 03:43:16;;;;;;;20.47;5.70;;;;;;;;;;4996508;28;20351;-84
2021/01/13 03:45:41;;;;;;;22.00;5.50;;;;;;;;;;4993881;28;20018;-84
2021/01/13 03:48:10;;;;;;;19.80;6.17;;;;;;;;;;4993572;28;20609;-84
2021/01/13 03:50:36;;;;;;;18.30;5.10;;;;;;;;;;5000545;28;20064;-84
2021/01/13 03:53:09;;;;;;;26.53;5.87;;;;;;;;;;5012052;28;20039;-84
2021/01/13 03:55:35;;;;;;;16.97;5.73;;;;;;;;;;4996200;28;20031;-84
2021/01/13 03:58:20;;;;;;;17.37;5.77;;;;;;;;;;4993575;28;20125;-84
2021/01/13 04:01:00;;;;;;;19.53;5.57;;;;;;;;;;4993607;28;20018;-84
2021/01/13 04:03:27;;;;;;;14.73;5.67;;;;;;;;;;4993240;28;20018;-84
2021/01/13 04:06:02;;;;;;;17.20;5.23;;;;;;;;;;4993540;28;20037;-84
2021/01/13 04:08:34;;;;;;;24.17;6.00;;;;;;;;;;4993367;28;20022;-83
2021/01/13 04:10:59;;;;;;;21.83;5.80;;;;;;;;;;4993855;28;20022;-83
2021/01/13 04:13:33;;;;;;;24.03;5.63;;;;;;;;;;5016832;28;20022;-84
2021/01/13 04:16:00;;;;;;;19.53;5.83;;;;;;;;;;5005937;28;20494;-84
2021/01/13 04:18:25;;;;;;;22.53;5.27;;;;;;;;;;4985462;28;20374;-84
2021/01/13 04:20:50;;;;;;;17.13;5.50;;;;;;;;;;4993006;28;20014;-84
2021/01/13 04:23:16;;;;;;;20.67;6.27;;;;;;;;;;5002585;28;20026;-84
2021/01/13 04:25:41;;;;;;;27.03;7.07;;;;;;;;;;4992917;28;20125;-84
2021/01/13 04:28:06;;;;;;;14.90;5.57;;;;;;;;;;4993062;28;20116;-84
2021/01/13 04:30:32;;;;;;;26.30;6.30;;;;;;;;;;4992535;28;20026;-84
2021/01/13 04:32:57;;;;;;;15.20;5.83;;;;;;;;;;4993873;28;20014;-84
2021/01/13 04:35:23;;;;;;;13.07;5.90;;;;;;;;;;4993963;28;20033;-84
2021/01/13 04:37:52;;;;;;;24.60;7.23;;;;;;;;;;4992682;28;20420;-84
2021/01/13 04:40:28;;;;;;;16.37;6.03;;;;;;;;;;4992543;28;20026;-84
2021/01/13 04:42:56;;;;;;;16.43;6.17;;;;;;;;;;4992684;28;20014;-84
2021/01/13 04:45:32;;;;;;;22.13;6.23;;;;;;;;;;4992624;28;20357;-84
2021/01/13 04:48:02;;;;;;;20.73;6.13;;;;;;;;;;4992596;28;20389;-84
2021/01/13 04:50:32;;;;;;;26.43;6.23;;;;;;;;;;5008947;28;20033;-84
2021/01/13 04:52:58;;;;;;;21.63;6.20;;;;;;;;;;4992203;28;20034;-84
2021/01/13 04:55:24;;;;;;;20.83;6.10;;;;;;;;;;4993685;28;20030;-84
2021/01/13 04:57:56;;;;;;;22.43;6.67;;;;;;;;;;4992488;28;20485;-84
2021/01/13 05:00:44;;;;;;;25.87;6.87;;;;;;;;;;5004848;28;20018;-84
2021/01/13 05:03:28;;;;;;;20.90;6.77;;;;;;;;;;5001146;28;20112;-85
2021/01/13 05:06:06;;;;;;;19.33;6.40;;;;;;;;;;4980004;28;20034;-84
2021/01/13 05:08:31;;;;;;;17.07;5.63;;;;;;;;;;5014688;28;20030;-84
2021/01/13 05:10:59;;;;;;;19.23;6.30;;;;;;;;;;4992174;28;20049;-84
2021/01/13 05:13:25;;;;;;;17.40;5.60;;;;;;;;;;5008546;28;20029;-84
2021/01/13 05:15:53;;;;;;;17.90;6.10;;;;;;;;;;4997323;28;20026;-84
2021/01/13 05:18:24;;;;;;;26.43;6.37;;;;;;;;;;5017270;28;20473;-84
2021/01/13 05:21:00;;;;;;;18.93;5.77;;;;;;;;;;4991938;28;20026;-84
2021/01/13 05:23:29;;;;;;;25.93;6.47;;;;;;;;;;4991898;28;20040;-84
2021/01/13 05:25:54;;;;;;;18.77;6.13;;;;;;;;;;5007940;28;20034;-84
2021/01/13 05:28:20;;;;;;;19.40;5.90;;;;;;;;;;5014271;28;20080;-84
2021/01/13 05:30:55;;;;;;;17.80;6.07;;;;;;;;;;5007326;28;20064;-84
2021/01/13 05:33:29;;;;;;;15.53;5.70;;;;;;;;;;4988461;28;20031;-84
2021/01/13 05:35:56;;;;;;;17.77;6.07;;;;;;;;;;4990308;28;20045;-84
2021/01/13 05:38:56;;;;;;;16.77;6.10;;;;;;;;;;4991764;28;20022;-84
2021/01/13 05:41:21;;;;;;;23.90;6.53;;;;;;;;;;4991420;28;20033;-84
2021/01/13 05:43:48;;;;;;;20.13;6.77;;;;;;;;;;4991503;28;20521;-84
2021/01/13 05:46:15;;;;;;;19.37;6.37;;;;;;;;;;4991832;28;20414;-84
2021/01/13 05:48:41;;;;;;;14.50;6.23;;;;;;;;;;4991424;28;20022;-84
2021/01/13 05:51:06;;;;;;;20.00;6.83;;;;;;;;;;4991635;28;20056;-84
2021/01/13 05:53:32;;;;;;;17.73;6.00;;;;;;;;;;5007863;28;20024;-83
2021/01/13 05:56:00;;;;;;;18.43;6.07;;;;;;;;;;4991389;28;20026;-84
2021/01/13 05:58:26;;;;;;;22.93;6.30;;;;;;;;;;4991420;28;20022;-84
2021/01/13 06:00:52;;;;;;;13.60;6.40;;;;;;;;;;4992662;28;20096;-84
2021/01/13 06:03:20;;;;;;;16.77;6.27;;;;;;;;;;5007755;28;20031;-84
2021/01/13 06:05:53;;;;;;;24.23;6.53;;;;;;;;;;4995129;28;20029;-84
2021/01/13 06:08:18;;;;;;;22.00;5.73;;;;;;;;;;4995577;28;20027;-83
2021/01/13 06:10:44;;;;;;;19.43;5.90;;;;;;;;;;4995249;28;20029;-84
2021/01/13 06:13:12;;;;;;;12.83;5.37;;;;;;;;;;4995283;28;20474;-84
2021/01/13 06:15:42;;;;;;;15.30;6.47;;;;;;;;;;4994999;28;20030;-84
2021/01/13 06:18:08;;;;;;;18.03;6.13;;;;;;;;;;4995380;28;20022;-84
2021/01/13 06:20:33;;;;;;;21.10;6.47;;;;;;;;;;4995093;28;20025;-84
2021/01/13 06:22:59;;;;;;;22.17;6.10;;;;;;;;;;4996557;28;20014;-84
2021/01/13 06:25:25;;;;;;;22.63;6.43;;;;;;;;;;4995322;28;20436;-83
2021/01/13 06:27:56;;;;;;;16.80;7.17;;;;;;;;;;4994636;28;20050;-84
2021/01/13 06:30:26;;;;;;;19.03;6.70;;;;;;;;;;4995195;28;20414;-84
2021/01/13 06:32:54;;;;;;;31.43;6.57;;;;;;;;;;4994866;28;20041;-84
2021/01/13 06:35:38;;;;;;;25.20;7.30;;;;;;;;;;4994897;28;20105;-84
2021/01/13 06:38:06;;;;;;;21.53;8.20;;;;;;;;;;4993312;28;20023;-84
2021/01/13 06:40:32;;;;;;;17.03;6.93;;;;;;;;;;4995141;28;20034;-84
2021/01/13 06:42:58;;;;;;;15.53;6.97;;;;;;;;;;4994733;28;20031;-84
2021/01/13 06:45:32;;;;;;;21.67;7.23;;;;;;;;;;4994815;28;20033;-84
2021/01/13 06:47:58;;;;;;;22.87;7.20;;;;;;;;;;4996052;28;20022;-84
2021/01/13 06:50:30;;;;;;;16.77;7.40;;;;;;;;;;4994636;28;20043;-84
2021/01/13 06:52:56;;;;;;;16.08;7.05;;;;;;;;;;4994542;28;20386;-84
2021/01/13 06:55:30;;;;;;;19.90;7.93;;;;;;;;;;4993997;28;20041;-83
2021/01/13 06:57:56;;;;;;;17.27;7.40;;;;;;;;;;4994582;28;20022;-84
2021/01/13 07:00:21;;;;;;;21.20;7.00;;;;;;;;;;4994326;28;20025;-84
2021/01/13 07:02:46;;;;;;;18.37;7.27;;;;;;;;;;4994649;28;20011;-84
2021/01/13 07:05:12;;;;;;;18.87;7.20;;;;;;;;;;5007664;28;20056;-83
2021/01/13 07:07:40;;;;;;;17.27;7.13;;;;;;;;;;4994466;28;20355;-84
2021/01/13 07:10:08;;;;;;;20.30;7.47;;;;;;;;;;4994225;28;20019;-84
2021/01/13 07:12:33;;;;;;;18.70;7.97;;;;;;;;;;4993848;28;20157;-84
2021/01/13 07:14:58;;;;;;;18.33;7.03;;;;;;;;;;4994058;28;20125;-84
2021/01/13 07:17:25;;;;;;;20.57;7.30;;;;;;;;;;4993837;28;20022;-84
2021/01/13 07:19:51;;;;;;;19.73;8.03;;;;;;;;;;4993866;28;20477;-84
2021/01/13 07:22:17;;;;;;;21.60;7.13;;;;;;;;;;5010272;28;20241;-84
2021/01/13 07:24:43;;;;;;;22.73;8.53;;;;;;;;;;4994310;28;20381;-84
2021/01/13 07:27:09;;;;;;;18.67;7.60;;;;;;;;;;5007763;28;20037;-84
2021/01/13 07:29:34;;;;;;;25.93;7.93;;;;;;;;;;4995101;28;20022;-83
2021/01/13 07:32:00;;;;;;;21.13;7.53;;;;;;;;;;4993884;28;20038;-83
2021/01/13 07:34:29;;;;;;;20.87;8.33;;;;;;;;;;4984513;28;20027;-84
2021/01/13 07:36:57;;;;;;;17.07;8.33;;;;;;;;;;4982270;28;20026;-83
2021/01/13 07:39:25;;;;;;;27.47;8.40;;;;;;;;;;4998488;28;20031;-83
2021/01/13 07:42:10;;;;;;;23.77;8.67;;;;;;;;;;5001631;28;20030;-83
2021/01/13 07:44:40;;;;;;;24.83;8.50;;;;;;;;;;4999999;28;20045;-84
2021/01/13 07:47:17;;;;;;;24.77;9.23;;;;;;;;;;4989899;28;20054;-83
2021/01/13 07:49:47;;;;;;;24.77;8.57;;;;;;;;;;5007412;28;20088;-84
2021/01/13 07:52:15;;;;;;;24.50;8.70;;;;;;;;;;5003354;28;20113;-84
2021/01/13 07:54:41;;;;;;;24.40;10.10;;;;;;;;;;4983151;28;20032;-84
2021/01/13 07:57:06;;;;;;;24.13;10.00;;;;;;;;;;4999292;28;20049;-84
2021/01/13 07:59:39;;;;;;;20.77;8.40;;;;;;;;;;5003782;28;20030;-84
2021/01/13 08:02:13;;;;;;;21.43;9.07;;;;;;;;;;4991152;28;20694;-84
2021/01/13 08:04:47;;;;;;;28.10;8.97;;;;;;;;;;4986150;28;20386;-84
2021/01/13 08:07:16;;;;;;;31.03;9.63;;;;;;;;;;4998266;28;20332;-84
2021/01/13 08:09:48;;;;;;;28.27;9.33;;;;;;;;;;4983010;28;20097;-84
2021/01/13 08:12:35;;;;;;;18.02;8.02;;;;;;;;;;5007013;28;20057;-83
2021/01/13 08:15:16;;;;;;;34.63;9.37;;;;;;;;;;5008028;28;20068;-84
2021/01/13 08:18:02;;;;;;;31.90;10.17;;;;;;;;;;5005778;28;20434;-83
2021/01/13 08:20:31;;;;;;;21.20;9.27;;;;;;;;;;5007666;28;20430;-83
2021/01/13 08:23:08;;;;;;;25.27;9.40;;;;;;;;;;4995192;28;20045;-83
2021/01/13 08:25:36;;;;;;;22.83;9.20;;;;;;;;;;4991932;28;20377;-84
2021/01/13 08:28:02;;;;;;;21.83;7.80;;;;;;;;;;5007123;28;20056;-84
2021/01/13 08:30:28;;;;;;;25.40;9.50;;;;;;;;;;4995651;28;20110;-85
2021/01/13 08:32:57;;;;;;;25.33;9.47;;;;;;;;;;5001734;28;20033;-87
2021/01/13 08:35:33;;;;;;;24.20;8.83;;;;;;;;;;4988621;28;20137;-84
2021/01/13 08:38:05;;;;;;;28.50;9.70;;;;;;;;;;5006089;28;20030;-84
2021/01/13 08:40:30;;;;;;;26.63;8.77;;;;;;;;;;4985949;28;20140;-84
2021/01/13 08:43:09;;;;;;;23.17;8.53;;;;;;;;;;4991803;28;20050;-85
2021/01/13 08:45:38;;;;;;;22.30;9.23;;;;;;;;;;4987943;28;20026;-85
2021/01/13 08:48:24;;;;;;;19.40;8.10;;;;;;;;;;4999599;28;20034;-86
2021/01/13 08:51:04;;;;;;;24.67;10.53;;;;;;;;;;4987358;28;20038;-83
2021/01/13 08:53:30;;;;;;;22.57;9.07;;;;;;;;;;4988170;28;20036;-85
2021/01/13 08:55:55;;;;;;;29.50;11.53;;;;;;;;;;4991259;28;20030;-86
2021/01/13 08:58:28;;;;;;;25.10;9.50;;;;;;;;;;5007675;28;20109;-86
2021/01/13 09:00:53;;;;;;;;;;;;;;;;;;5006617;28;20027;-87
2021/01/13 09:03:25;;;;;;;22.67;8.98;;;;;;;;;;5004911;28;19948;-84
2021/01/13 09:05:54;;;;;;;28.27;9.43;;;;;;;;;;5003650;28;20374;-84
2021/01/13 09:08:29;;;;;;;30.93;10.63;;;;;;;;;;4985652;28;20030;-84
2021/01/13 09:10:55;;;;;;;25.20;9.27;;;;;;;;;;5003254;28;20049;-84
2021/01/13 09:13:26;;;;;;;25.50;9.80;;;;;;;;;;5007300;28;20091;-84
2021/01/13 09:15:53;;;;;;;27.80;9.20;;;;;;;;;;5003481;28;20030;-84
2021/01/13 09:18:21;;;;;;;22.73;9.27;;;;;;;;;;5006805;28;20021;-85
2021/01/13 09:20:48;;;;;;;22.70;8.57;;;;;;;;;;5006838;28;20018;-84
2021/01/13 09:23:20;;;;;;;23.27;9.17;;;;;;;;;;4986744;28;20023;-84
2021/01/13 09:25:50;;;;;;;29.73;10.10;;;;;;;;;;5006969;28;20022;-84
2021/01/13 09:28:16;;;;;;;28.57;10.27;;;;;;;;;;4990785;28;20034;-84
2021/01/13 09:30:42;;;;;;;23.53;9.13;;;;;;;;;;5001597;28;20025;-85
2021/01/13 09:33:09;;;;;;;25.80;9.37;;;;;;;;;;4995669;28;20030;-84
2021/01/13 09:35:36;;;;;;;35.60;10.13;;;;;;;;;;4990216;28;20049;-84
2021/01/13 09:38:03;;;;;;;23.73;9.30;;;;;;;;;;5006176;28;20478;-84
2021/01/13 09:40:47;;;;;;;26.10;9.40;;;;;;;;;;5006595;28;20465;-84
2021/01/13 09:43:25;;;;;;;23.83;9.50;;;;;;;;;;4990143;28;20367;-84
2021/01/13 09:45:54;;;;;;;29.77;11.13;;;;;;;;;;4991106;28;20023;-84
2021/01/13 09:48:19;;;;;;;24.77;9.67;;;;;;;;;;5007212;28;20023;-84
2021/01/13 09:50:45;;;;;;;26.57;9.37;;;;;;;;;;4991956;28;20026;-85
2021/01/13 09:53:11;;;;;;;31.10;10.23;;;;;;;;;;4992057;28;20806;-86
2021/01/13 09:55:37;;;;;;;22.03;9.93;;;;;;;;;;4997328;28;20060;-86
2021/01/13 09:58:13;;;;;;;29.93;10.37;;;;;;;;;;4979725;28;20019;-85
2021/01/13 10:00:39;;;;;;;25.57;10.97;;;;;;;;;;4979758;28;20369;-85
2021/01/13 10:03:05;;;;;;;28.50;10.50;;;;;;;;;;4987794;28;20022;-86
2021/01/13 10:05:31;;;;;;;23.07;9.37;;;;;;;;;;5006951;28;20030;-84
2021/01/13 10:07:56;;;;;;;24.57;10.23;;;;;;;;;;4996298;28;20023;-85
2021/01/13 10:10:25;;;;;;;27.47;9.90;;;;;;;;;;4999225;28;20022;-86
2021/01/13 10:12:52;;;;;;;31.80;11.10;;;;;;;;;;4991066;28;20041;-85
2021/01/13 10:15:17;;;;;;;29.23;10.73;;;;;;;;;;4980842;28;20470;-86
2021/01/13 10:17:43;;;;;;;33.60;10.53;;;;;;;;;;4983695;28;20026;-85
2021/01/13 10:20:15;;;;;;;29.73;9.87;;;;;;;;;;5007024;28;20021;-86
2021/01/13 10:22:40;;;;;;;27.55;8.80;;;;;;;;;;5008298;28;20053;-86
2021/01/13 10:25:06;;;;;;;19.67;8.67;;;;;;;;;;4990624;28;20046;-85
2021/01/13 10:27:32;;;;;;;24.53;9.77;;;;;;;;;;4983127;28;20402;-85
2021/01/13 10:29:57;;;;;;;25.10;9.60;;;;;;;;;;4988232;28;20026;-85
2021/01/13 10:32:22;;;;;;;22.10;9.87;;;;;;;;;;4988192;28;20154;-87
2021/01/13 10:34:51;;;;;;;29.07;10.43;;;;;;;;;;4981340;28;20404;-87
2021/01/13 10:37:16;;;;;;;27.80;10.20;;;;;;;;;;4992465;28;20022;-83
2021/01/13 10:39:42;;;;;;;18.20;9.63;;;;;;;;;;4987684;28;20025;-85
2021/01/13 10:42:07;;;;;;;23.20;9.80;;;;;;;;;;5004737;28;20363;-85
2021/01/13 10:44:33;;;;;;;25.50;9.77;;;;;;;;;;4999682;28;20022;-86
2021/01/13 10:47:00;;;;;;;24.67;9.23;;;;;;;;;;4987189;28;20363;-85
2021/01/13 10:49:30;;;;;;;24.60;9.00;;;;;;;;;;4988112;28;20021;-85
2021/01/13 10:51:56;;;;;;;23.40;9.67;;;;;;;;;;4994751;28;20077;-86
2021/01/13 10:54:23;;;;;;;27.40;9.23;;;;;;;;;;5007238;28;20389;-85
2021/01/13 10:56:53;;;;;;;29.70;9.83;;;;;;;;;;4994002;28;20184;-86
2021/01/13 10:59:19;;;;;;;25.40;10.00;;;;;;;;;;5010184;28;20026;-85
2021/01/13 11:01:45;;;;;;;25.60;9.40;;;;;;;;;;4993599;28;20048;-85
2021/01/13 11:04:20;;;;;;;27.77;9.43;;;;;;;;;;4993762;28;20029;-87
2021/01/13 11:06:46;;;;;;;25.60;9.23;;;;;;;;;;5000817;28;20422;-84
2021/01/13 11:09:11;;;;;;;26.60;9.23;;;;;;;;;;5000160;28;20061;-86
2021/01/13 11:11:40;;;;;;;22.00;9.83;;;;;;;;;;5003029;28;20113;-86
2021/01/13 11:14:07;;;;;;;29.67;8.97;;;;;;;;;;4992778;28;20077;-86
2021/01/13 11:16:33;;;;;;;25.77;8.73;;;;;;;;;;5002247;28;20030;-85
2021/01/13 11:18:58;;;;;;;26.93;8.40;;;;;;;;;;5000250;28;20470;-85
2021/01/13 11:21:24;;;;;;;22.70;8.60;;;;;;;;;;4997443;28;20026;-85
2021/01/13 11:23:49;;;;;;;23.83;8.73;;;;;;;;;;5005611;28;20523;-85
2021/01/13 11:26:15;;;;;;;29.97;9.10;;;;;;;;;;4992422;28;20060;-84
2021/01/13 11:28:43;;;;;;;27.83;9.93;;;;;;;;;;4987494;28;20023;-85
2021/01/13 11:31:10;;;;;;;21.67;7.87;;;;;;;;;;4992862;28;20030;-85
2021/01/13 11:33:43;;;;;;;24.23;7.70;;;;;;;;;;5009533;28;20030;-85
2021/01/13 11:36:08;;;;;;;;;;;;;;;;;;5009549;28;20026;-85
2021/01/13 11:38:33;;;;;;;25.13;8.48;;;;;;;;;;5000412;28;20053;-85
2021/01/13 11:41:07;;;;;;;37.83;8.40;;;;;;;;;;4993060;28;20039;-85
2021/01/13 11:43:52;;;;;;;26.73;8.83;;;;;;;;;;5009697;28;20018;-85
2021/01/13 11:46:22;;;;;;;25.03;8.73;;;;;;;;;;4993279;28;20026;-84
2021/01/13 11:49:03;;;;;;;19.97;8.63;;;;;;;;;;5009358;28;20542;-84
2021/01/13 11:51:31;;;;;;;25.97;8.83;;;;;;;;;;4992500;28;20117;-84
2021/01/13 11:53:56;;;;;;;29.97;10.03;;;;;;;;;;4994456;28;20014;-85
2021/01/13 11:56:29;;;;;;;28.40;9.20;;;;;;;;;;4993224;28;20026;-85
2021/01/13 11:58:54;;;;;;;;;;;;;;;;;;4994525;28;20034;-85
2021/01/13 12:01:20;;;;;;;24.55;8.75;;;;;;;;;;5008732;28;20029;-85
2021/01/13 12:03:55;;;;;;;19.03;8.07;;;;;;;;;;4990191;28;20050;-84
2021/01/13 12:06:20;;;;;;;27.90;8.80;;;;;;;;;;5014964;28;20036;-84
2021/01/13 12:08:45;;;;;;;15.47;5.40;;;;;;;;;;5012486;28;20117;-85
2021/01/13 12:11:11;;;;;;;29.50;8.83;;;;;;;;;;4995492;28;20532;-85
2021/01/13 12:13:42;;;;;;;17.73;8.00;;;;;;;;;;5006452;28;20076;-85
2021/01/13 12:16:13;;;;;;;25.40;8.37;;;;;;;;;;4992358;28;20529;-86
2021/01/13 12:18:49;;;;;;;29.40;8.70;;;;;;;;;;5008869;28;20026;-85
2021/01/13 12:21:14;;;;;;;23.27;7.13;;;;;;;;;;4992877;28;20018;-85
2021/01/13 12:23:40;;;;;;;28.83;7.80;;;;;;;;;;4993863;28;20522;-84
2021/01/13 12:26:33;;;;;;;17.13;7.53;;;;;;;;;;4991868;28;20540;-85
2021/01/13 12:29:21;;;;;;;23.05;7.65;;;;;;;;;;4992387;28;20031;-85
2021/01/13 12:31:47;;;;;;;16.37;6.97;;;;;;;;;;4992224;28;20441;-84
2021/01/13 12:34:13;;;;;;;21.10;7.10;;;;;;;;;;5010165;28;20105;-84
2021/01/13 12:36:39;;;;;;;19.10;7.30;;;;;;;;;;4992744;28;20556;-85
2021/01/13 12:39:06;;;;;;;21.77;6.93;;;;;;;;;;5007620;28;20022;-84
2021/01/13 12:41:32;;;;;;;20.70;7.47;;;;;;;;;;5005949;28;20683;-85
2021/01/13 12:44:01;;;;;;;19.27;5.90;;;;;;;;;;4980653;28;20069;-85
2021/01/13 12:46:37;;;;;;;17.00;5.27;;;;;;;;;;5008279;28;20026;-85
2021/01/13 12:49:03;;;;;;;15.90;5.20;;;;;;;;;;4991705;28;20058;-84
2021/01/13 12:51:29;;;;;;;15.23;5.43;;;;;;;;;;4993351;28;20402;-84
2021/01/13 12:53:58;;;;;;;19.83;6.07;;;;;;;;;;4992063;28;20023;-85
2021/01/13 12:56:27;;;;;;;16.07;5.23;;;;;;;;;;4992061;28;20662;-85
2021/01/13 12:58:53;;;;;;;17.03;5.30;;;;;;;;;;4997124;28;20014;-84
2021/01/13 13:01:18;;;;;;;17.63;6.20;;;;;;;;;;5017404;28;20023;-84
2021/01/13 13:03:44;;;;;;;14.23;5.10;;;;;;;;;;4991732;28;20113;-84
2021/01/13 13:06:09;;;;;;;18.73;5.70;;;;;;;;;;4991864;28;20100;-84
2021/01/13 13:08:35;;;;;;;20.33;6.13;;;;;;;;;;4990490;28;20026;-84
2021/01/13 13:11:00;;;;;;;20.83;5.30;;;;;;;;;;5013222;28;20014;-84
2021/01/13 13:13:26;;;;;;;22.67;7.50;;;;;;;;;;5007332;28;20026;-84
2021/01/13 13:15:51;;;;;;;18.97;7.17;;;;;;;;;;5007609;28;20053;-84
2021/01/13 13:18:16;;;;;;;25.80;8.50;;;;;;;;;;4992931;28;20092;-85
2021/01/13 13:20:41;;;;;;;25.17;8.00;;;;;;;;;;5007719;28;20237;-85
2021/01/13 13:23:08;;;;;;;24.23;7.47;;;;;;;;;;4991779;28;20014;-84
2021/01/13 13:25:34;;;;;;;16.27;7.03;;;;;;;;;;4979307;28;20029;-84
2021/01/13 13:27:59;;;;;;;20.57;6.53;;;;;;;;;;4991707;28;20030;-84
2021/01/13 13:30:24;;;;;;;17.10;6.17;;;;;;;;;;5007383;28;20454;-85
2021/01/13 13:32:49;;;;;;;25.03;6.60;;;;;;;;;;4992590;28;20076;-84
2021/01/13 13:35:15;;;;;;;20.27;7.40;;;;;;;;;;5007559;28;20667;-84
2021/01/13 13:37:40;;;;;;;23.17;6.70;;;;;;;;;;5007658;28;20065;-84
2021/01/13 13:40:07;;;;;;;20.83;7.00;;;;;;;;;;4991459;28;20105;-84
2021/01/13 13:42:33;;;;;;;23.43;7.40;;;;;;;;;;4991212;28;20021;-84
2021/01/13 13:44:58;;;;;;;18.37;6.50;;;;;;;;;;5004491;28;20022;-85
2021/01/13 13:47:23;;;;;;;24.40;7.13;;;;;;;;;;4991682;28;20411;-85
2021/01/13 13:49:48;;;;;;;24.73;7.33;;;;;;;;;;4991266;28;20030;-84
2021/01/13 13:52:14;;;;;;;20.07;5.87;;;;;;;;;;4990955;28;20358;-84
2021/01/13 13:54:39;;;;;;;21.47;6.43;;;;;;;;;;4992039;28;20102;-84
2021/01/13 13:57:05;;;;;;;24.27;7.20;;;;;;;;;;5007901;28;20037;-85
2021/01/13 13:59:30;;;;;;;16.93;6.30;;;;;;;;;;5007366;28;20492;-84
2021/01/13 14:01:55;;;;;;;19.17;6.83;;;;;;;;;;4992660;28;20105;-84
2021/01/13 14:04:20;;;;;;;25.87;6.60;;;;;;;;;;4991379;28;20069;-85
2021/01/13 14:06:46;;;;;;;19.90;6.40;;;;;;;;;;4989689;28;20030;-84
2021/01/13 14:09:11;;;;;;;23.80;7.40;;;;;;;;;;4991020;28;20033;-85
2021/01/13 14:11:37;;;;;;;17.23;6.53;;;;;;;;;;4984136;28;20037;-85
2021/01/13 14:14:03;;;;;;;14.67;6.20;;;;;;;;;;5002664;28;20501;-85
2021/01/13 14:16:28;;;;;;;17.23;6.60;;;;;;;;;;5006188;28;20050;-85
2021/01/13 14:18:53;;;;;;;19.97;6.97;;;;;;;;;;5007791;28;20050;-85
2021/01/13 14:21:19;;;;;;;17.33;6.80;;;;;;;;;;4990515;28;20050;-85
2021/01/13 14:23:44;;;;;;;18.33;6.57;;;;;;;;;;4992013;28;20022;-85
2021/01/13 14:26:09;;;;;;;21.40;7.40;;;;;;;;;;5009305;28;20035;-85
2021/01/13 14:28:35;;;;;;;18.77;7.07;;;;;;;;;;5010939;28;20137;-85
2021/01/13 14:31:00;;;;;;;18.70;6.97;;;;;;;;;;5007228;28;20022;-85
2021/01/13 14:33:25;;;;;;;19.37;7.13;;;;;;;;;;4994269;28;20018;-85
2021/01/13 14:35:50;;;;;;;19.50;7.53;;;;;;;;;;5010757;28;20108;-85
2021/01/13 14:38:15;;;;;;;18.60;7.13;;;;;;;;;;5010520;28;20417;-85